Terminal Aerodrome Forecast
Issued by NWS

Home | Current Version | Previous Version | Text Only | Print | Product List | Glossary On
Versions: 1 2 3 4 5 6 7 8 9 10 11 12
000
FTUS45 KRIW 271700
TAFJAC
TAF
KJAC 271722Z 2718/2818 21012G20KT P6SM VCSH BKN060 OVC080
     FM280100 18006KT P6SM SCT050 BKN080
     FM280800 19011KT P6SM BKN110
      AMD LTD TO CLD VIS AND WIND=

USA.gov is the U.S. government's official web portal to all federal, state and local government web resources and services.